sensor_id;sensor_type;location;lat;lon;timestamp;temperature;humidity
18575;DHT22;9417;16.484;102.872;2023-03-01T00:00:48;18.90;89.00
18575;DHT22;9417;16.484;102.872;2023-03-01T00:02:55;19.00;89.00
18575;DHT22;9417;16.484;102.872;2023-03-01T00:05:02;19.00;88.80
18575;DHT22;9417;16.484;102.872;2023-03-01T00:07:10;19.10;88.60
18575;DHT22;9417;16.484;102.872;2023-03-01T00:09:18;19.10;88.30
18575;DHT22;9417;16.484;102.872;2023-03-01T00:11:26;19.20;88.00
18575;DHT22;9417;16.484;102.872;2023-03-01T00:13:34;19.20;87.70
18575;DHT22;9417;16.484;102.872;2023-03-01T00:15:41;19.30;87.50
18575;DHT22;9417;16.484;102.872;2023-03-01T00:17:48;19.30;87.30
18575;DHT22;9417;16.484;102.872;2023-03-01T00:19:55;19.40;87.60
18575;DHT22;9417;16.484;102.872;2023-03-01T00:22:02;19.40;87.80
18575;DHT22;9417;16.484;102.872;2023-03-01T00:24:11;19.50;87.70
18575;DHT22;9417;16.484;102.872;2023-03-01T00:26:20;19.50;87.40
18575;DHT22;9417;16.484;102.872;2023-03-01T00:28:27;19.60;86.80
18575;DHT22;9417;16.484;102.872;2023-03-01T00:30:34;19.60;86.40
18575;DHT22;9417;16.484;102.872;2023-03-01T00:32:41;19.70;86.20
18575;DHT22;9417;16.484;102.872;2023-03-01T00:34:48;19.70;86.30
18575;DHT22;9417;16.484;102.872;2023-03-01T00:37:00;19.70;85.30
18575;DHT22;9417;16.484;102.872;2023-03-01T00:39:13;19.80;85.00
18575;DHT22;9417;16.484;102.872;2023-03-01T00:41:20;19.80;85.10
18575;DHT22;9417;16.484;102.872;2023-03-01T00:43:29;19.80;84.90
18575;DHT22;9417;16.484;102.872;2023-03-01T00:45:41;19.90;85.10
18575;DHT22;9417;16.484;102.872;2023-03-01T00:47:48;19.90;85.00
18575;DHT22;9417;16.484;102.872;2023-03-01T00:49:55;20.00;84.70
18575;DHT22;9417;16.484;102.872;2023-03-01T00:52:02;20.00;84.50
18575;DHT22;9417;16.484;102.872;2023-03-01T00:54:11;20.10;83.60
18575;DHT22;9417;16.484;102.872;2023-03-01T00:56:19;20.10;83.00
18575;DHT22;9417;16.484;102.872;2023-03-01T00:58:26;20.20;82.40
18575;DHT22;9417;16.484;102.872;2023-03-01T01:00:33;20.20;82.40
18575;DHT22;9417;16.484;102.872;2023-03-01T01:02:40;20.20;82.60
18575;DHT22;9417;16.484;102.872;2023-03-01T01:04:48;20.30;82.50
18575;DHT22;9417;16.484;102.872;2023-03-01T01:06:55;20.40;82.30
18575;DHT22;9417;16.484;102.872;2023-03-01T01:09:03;20.40;82.00
18575;DHT22;9417;16.484;102.872;2023-03-01T01:11:12;20.50;81.90
18575;DHT22;9417;16.484;102.872;2023-03-01T01:13:19;20.50;81.60
18575;DHT22;9417;16.484;102.872;2023-03-01T01:15:26;20.60;81.40
18575;DHT22;9417;16.484;102.872;2023-03-01T01:17:33;20.70;81.10
18575;DHT22;9417;16.484;102.872;2023-03-01T01:19:40;20.80;81.10
18575;DHT22;9417;16.484;102.872;2023-03-01T01:21:48;20.90;81.20
18575;DHT22;9417;16.484;102.872;2023-03-01T01:23:55;21.00;81.20
18575;DHT22;9417;16.484;102.872;2023-03-01T01:26:06;21.10;81.00
18575;DHT22;9417;16.484;102.872;2023-03-01T01:28:15;21.20;81.20
18575;DHT22;9417;16.484;102.872;2023-03-01T01:30:22;21.20;80.70
18575;DHT22;9417;16.484;102.872;2023-03-01T01:32:29;21.20;80.60
18575;DHT22;9417;16.484;102.872;2023-03-01T01:34:36;21.30;80.90
18575;DHT22;9417;16.484;102.872;2023-03-01T01:36:43;21.30;80.70
18575;DHT22;9417;16.484;102.872;2023-03-01T01:38:50;21.40;80.40
18575;DHT22;9417;16.484;102.872;2023-03-01T01:40:57;21.50;80.40
18575;DHT22;9417;16.484;102.872;2023-03-01T01:43:07;21.60;81.10
18575;DHT22;9417;16.484;102.872;2023-03-01T01:45:33;21.60;80.40
18575;DHT22;9417;16.484;102.872;2023-03-01T01:47:40;21.70;80.20
18575;DHT22;9417;16.484;102.872;2023-03-01T01:49:50;21.70;80.00
18575;DHT22;9417;16.484;102.872;2023-03-01T01:52:02;21.80;79.20
18575;DHT22;9417;16.484;102.872;2023-03-01T01:54:18;21.80;79.40
18575;DHT22;9417;16.484;102.872;2023-03-01T01:56:27;21.90;79.30
18575;DHT22;9417;16.484;102.872;2023-03-01T01:58:36;22.00;80.20
18575;DHT22;9417;16.484;102.872;2023-03-01T02:00:46;22.10;79.30
18575;DHT22;9417;16.484;102.872;2023-03-01T02:02:56;22.20;79.10
18575;DHT22;9417;16.484;102.872;2023-03-01T02:05:08;22.20;78.80
18575;DHT22;9417;16.484;102.872;2023-03-01T02:07:19;22.30;78.70
18575;DHT22;9417;16.484;102.872;2023-03-01T02:09:27;22.40;78.50
18575;DHT22;9417;16.484;102.872;2023-03-01T02:11:35;22.50;78.60
18575;DHT22;9417;16.484;102.872;2023-03-01T02:13:43;22.60;78.20
18575;DHT22;9417;16.484;102.872;2023-03-01T02:15:53;22.60;78.30
18575;DHT22;9417;16.484;102.872;2023-03-01T02:18:00;22.70;78.00
18575;DHT22;9417;16.484;102.872;2023-03-01T02:20:16;22.80;77.80
18575;DHT22;9417;16.484;102.872;2023-03-01T02:22:27;22.80;77.90
18575;DHT22;9417;16.484;102.872;2023-03-01T02:24:44;22.90;77.10
18575;DHT22;9417;16.484;102.872;2023-03-01T02:26:57;23.00;77.70
18575;DHT22;9417;16.484;102.872;2023-03-01T02:29:06;23.10;76.70
18575;DHT22;9417;16.484;102.872;2023-03-01T02:31:16;23.20;76.60
18575;DHT22;9417;16.484;102.872;2023-03-01T02:33:41;23.30;76.50
18575;DHT22;9417;16.484;102.872;2023-03-01T02:35:49;23.40;76.20
18575;DHT22;9417;16.484;102.872;2023-03-01T02:37:56;23.50;75.90
18575;DHT22;9417;16.484;102.872;2023-03-01T02:40:08;23.50;75.00
18575;DHT22;9417;16.484;102.872;2023-03-01T02:42:20;23.60;75.60
18575;DHT22;9417;16.484;102.872;2023-03-01T02:44:31;23.70;74.40
18575;DHT22;9417;16.484;102.872;2023-03-01T02:46:43;23.80;74.00
18575;DHT22;9417;16.484;102.872;2023-03-01T02:48:52;23.80;73.60
18575;DHT22;9417;16.484;102.872;2023-03-01T02:51:10;23.90;73.10
18575;DHT22;9417;16.484;102.872;2023-03-01T02:53:24;23.90;72.30
18575;DHT22;9417;16.484;102.872;2023-03-01T02:55:32;23.90;71.50
18575;DHT22;9417;16.484;102.872;2023-03-01T02:57:41;24.00;72.80
18575;DHT22;9417;16.484;102.872;2023-03-01T02:59:52;24.10;72.10
18575;DHT22;9417;16.484;102.872;2023-03-01T03:02:01;24.20;71.50
18575;DHT22;9417;16.484;102.872;2023-03-01T03:04:10;24.20;71.80
18575;DHT22;9417;16.484;102.872;2023-03-01T03:06:17;24.40;69.50
18575;DHT22;9417;16.484;102.872;2023-03-01T03:08:25;24.50;70.00
18575;DHT22;9417;16.484;102.872;2023-03-01T03:10:33;24.60;69.90
18575;DHT22;9417;16.484;102.872;2023-03-01T03:12:41;24.70;69.50
18575;DHT22;9417;16.484;102.872;2023-03-01T03:14:50;24.80;69.40
18575;DHT22;9417;16.484;102.872;2023-03-01T03:16:57;25.00;69.30
18575;DHT22;9417;16.484;102.872;2023-03-01T03:19:04;25.10;68.90
18575;DHT22;9417;16.484;102.872;2023-03-01T03:21:12;25.20;67.60
18575;DHT22;9417;16.484;102.872;2023-03-01T03:23:19;25.30;67.60
18575;DHT22;9417;16.484;102.872;2023-03-01T03:25:28;25.40;67.60
18575;DHT22;9417;16.484;102.872;2023-03-01T03:27:35;25.50;67.70
18575;DHT22;9417;16.484;102.872;2023-03-01T03:29:42;25.50;67.10
18575;DHT22;9417;16.484;102.872;2023-03-01T03:31:51;25.60;66.50
18575;DHT22;9417;16.484;102.872;2023-03-01T03:33:58;25.70;66.60
18575;DHT22;9417;16.484;102.872;2023-03-01T03:36:06;25.80;65.90
18575;DHT22;9417;16.484;102.872;2023-03-01T03:38:22;25.80;65.70
18575;DHT22;9417;16.484;102.872;2023-03-01T03:40:30;25.90;65.50
18575;DHT22;9417;16.484;102.872;2023-03-01T03:42:37;26.00;65.70
18575;DHT22;9417;16.484;102.872;2023-03-01T03:44:44;26.00;65.70
18575;DHT22;9417;16.484;102.872;2023-03-01T03:46:53;26.10;65.80
18575;DHT22;9417;16.484;102.872;2023-03-01T03:49:00;26.20;66.60
18575;DHT22;9417;16.484;102.872;2023-03-01T03:51:09;26.30;67.10
18575;DHT22;9417;16.484;102.872;2023-03-01T03:53:17;26.40;66.90
18575;DHT22;9417;16.484;102.872;2023-03-01T03:55:24;26.40;65.50
18575;DHT22;9417;16.484;102.872;2023-03-01T03:57:35;26.50;65.30
18575;DHT22;9417;16.484;102.872;2023-03-01T03:59:41;26.50;64.90
18575;DHT22;9417;16.484;102.872;2023-03-01T04:01:49;26.60;64.90
18575;DHT22;9417;16.484;102.872;2023-03-01T04:03:57;26.70;64.90
18575;DHT22;9417;16.484;102.872;2023-03-01T04:06:08;26.80;64.40
18575;DHT22;9417;16.484;102.872;2023-03-01T04:08:15;26.90;63.20
18575;DHT22;9417;16.484;102.872;2023-03-01T04:10:24;27.00;62.80
18575;DHT22;9417;16.484;102.872;2023-03-01T04:12:31;27.20;62.50
18575;DHT22;9417;16.484;102.872;2023-03-01T04:14:38;27.30;62.40
18575;DHT22;9417;16.484;102.872;2023-03-01T04:16:45;27.40;59.80
18575;DHT22;9417;16.484;102.872;2023-03-01T04:18:53;27.40;59.00
18575;DHT22;9417;16.484;102.872;2023-03-01T04:21:01;27.50;59.60
18575;DHT22;9417;16.484;102.872;2023-03-01T04:23:12;27.60;58.90
18575;DHT22;9417;16.484;102.872;2023-03-01T04:25:20;27.60;59.60
18575;DHT22;9417;16.484;102.872;2023-03-01T04:27:28;27.60;59.90
18575;DHT22;9417;16.484;102.872;2023-03-01T04:29:35;27.70;59.90
18575;DHT22;9417;16.484;102.872;2023-03-01T04:31:42;27.80;58.20
18575;DHT22;9417;16.484;102.872;2023-03-01T04:33:50;27.90;58.40
18575;DHT22;9417;16.484;102.872;2023-03-01T04:35:57;28.00;58.00
18575;DHT22;9417;16.484;102.872;2023-03-01T04:38:07;28.10;58.00
18575;DHT22;9417;16.484;102.872;2023-03-01T04:40:14;28.20;57.30
18575;DHT22;9417;16.484;102.872;2023-03-01T04:42:21;28.30;55.70
18575;DHT22;9417;16.484;102.872;2023-03-01T04:44:28;28.30;56.90
18575;DHT22;9417;16.484;102.872;2023-03-01T04:46:35;28.50;56.40
18575;DHT22;9417;16.484;102.872;2023-03-01T04:48:44;28.60;55.40
18575;DHT22;9417;16.484;102.872;2023-03-01T04:50:52;28.60;55.60
18575;DHT22;9417;16.484;102.872;2023-03-01T04:52:59;28.70;53.00
18575;DHT22;9417;16.484;102.872;2023-03-01T04:55:09;28.70;54.10
18575;DHT22;9417;16.484;102.872;2023-03-01T04:57:16;28.70;55.10
18575;DHT22;9417;16.484;102.872;2023-03-01T04:59:23;28.80;55.20
18575;DHT22;9417;16.484;102.872;2023-03-01T05:01:30;28.90;54.80
18575;DHT22;9417;16.484;102.872;2023-03-01T05:03:37;29.00;54.40
18575;DHT22;9417;16.484;102.872;2023-03-01T05:05:47;29.10;54.00
18575;DHT22;9417;16.484;102.872;2023-03-01T05:07:56;29.30;53.50
18575;DHT22;9417;16.484;102.872;2023-03-01T05:10:03;29.40;53.30
18575;DHT22;9417;16.484;102.872;2023-03-01T05:12:12;29.50;52.50
18575;DHT22;9417;16.484;102.872;2023-03-01T05:14:19;29.50;52.40
18575;DHT22;9417;16.484;102.872;2023-03-01T05:16:26;29.60;51.80
18575;DHT22;9417;16.484;102.872;2023-03-01T05:18:38;29.60;51.10
18575;DHT22;9417;16.484;102.872;2023-03-01T05:20:46;29.60;51.10
18575;DHT22;9417;16.484;102.872;2023-03-01T05:22:54;29.50;52.60
18575;DHT22;9417;16.484;102.872;2023-03-01T05:25:01;29.60;50.60
18575;DHT22;9417;16.484;102.872;2023-03-01T05:27:08;29.60;51.30
18575;DHT22;9417;16.484;102.872;2023-03-01T05:29:19;29.70;50.00
18575;DHT22;9417;16.484;102.872;2023-03-01T05:31:28;29.70;51.10
18575;DHT22;9417;16.484;102.872;2023-03-01T05:33:36;29.80;49.40
18575;DHT22;9417;16.484;102.872;2023-03-01T05:35:43;30.00;50.20
18575;DHT22;9417;16.484;102.872;2023-03-01T05:37:51;30.10;51.10
18575;DHT22;9417;16.484;102.872;2023-03-01T05:39:58;30.10;50.80
18575;DHT22;9417;16.484;102.872;2023-03-01T05:42:05;30.10;49.20
18575;DHT22;9417;16.484;102.872;2023-03-01T05:44:13;30.20;51.60
18575;DHT22;9417;16.484;102.872;2023-03-01T05:46:22;30.20;52.30
18575;DHT22;9417;16.484;102.872;2023-03-01T05:48:29;30.30;51.50
18575;DHT22;9417;16.484;102.872;2023-03-01T05:50:38;30.30;49.60
18575;DHT22;9417;16.484;102.872;2023-03-01T05:52:47;30.40;50.10
18575;DHT22;9417;16.484;102.872;2023-03-01T05:54:54;30.60;49.20
18575;DHT22;9417;16.484;102.872;2023-03-01T05:57:01;30.60;48.10
18575;DHT22;9417;16.484;102.872;2023-03-01T05:59:08;30.60;47.70
18575;DHT22;9417;16.484;102.872;2023-03-01T06:01:15;30.60;48.00
18575;DHT22;9417;16.484;102.872;2023-03-01T06:03:24;30.70;48.30
18575;DHT22;9417;16.484;102.872;2023-03-01T06:05:32;30.70;47.40
18575;DHT22;9417;16.484;102.872;2023-03-01T06:07:39;30.90;46.20
18575;DHT22;9417;16.484;102.872;2023-03-01T06:09:46;30.90;46.00
18575;DHT22;9417;16.484;102.872;2023-03-01T06:11:53;30.90;45.50
18575;DHT22;9417;16.484;102.872;2023-03-01T06:14:00;31.00;45.80
18575;DHT22;9417;16.484;102.872;2023-03-01T06:16:08;31.10;45.80
18575;DHT22;9417;16.484;102.872;2023-03-01T06:18:15;31.10;46.00
18575;DHT22;9417;16.484;102.872;2023-03-01T06:20:25;31.10;46.40
18575;DHT22;9417;16.484;102.872;2023-03-01T06:22:32;31.10;45.90
18575;DHT22;9417;16.484;102.872;2023-03-01T06:24:39;31.10;46.80
18575;DHT22;9417;16.484;102.872;2023-03-01T06:26:46;31.20;46.40
18575;DHT22;9417;16.484;102.872;2023-03-01T06:28:53;31.30;45.30
18575;DHT22;9417;16.484;102.872;2023-03-01T06:31:00;31.30;44.40
18575;DHT22;9417;16.484;102.872;2023-03-01T06:33:06;31.30;44.10
18575;DHT22;9417;16.484;102.872;2023-03-01T06:35:14;31.40;44.70
18575;DHT22;9417;16.484;102.872;2023-03-01T06:37:24;31.50;45.80
18575;DHT22;9417;16.484;102.872;2023-03-01T06:39:31;31.60;44.70
18575;DHT22;9417;16.484;102.872;2023-03-01T06:41:39;31.70;43.90
18575;DHT22;9417;16.484;102.872;2023-03-01T06:43:46;31.80;44.00
18575;DHT22;9417;16.484;102.872;2023-03-01T06:45:53;31.90;43.60
18575;DHT22;9417;16.484;102.872;2023-03-01T06:48:04;31.90;44.50
18575;DHT22;9417;16.484;102.872;2023-03-01T06:50:12;31.80;43.40
18575;DHT22;9417;16.484;102.872;2023-03-01T06:52:19;31.70;43.40
18575;DHT22;9417;16.484;102.872;2023-03-01T06:54:28;31.70;43.60
18575;DHT22;9417;16.484;102.872;2023-03-01T06:56:35;31.70;43.50
18575;DHT22;9417;16.484;102.872;2023-03-01T06:58:42;31.80;42.60
18575;DHT22;9417;16.484;102.872;2023-03-01T07:00:48;31.90;42.00
18575;DHT22;9417;16.484;102.872;2023-03-01T07:02:58;32.10;41.60
18575;DHT22;9417;16.484;102.872;2023-03-01T07:05:05;32.00;38.70
18575;DHT22;9417;16.484;102.872;2023-03-01T07:07:13;32.00;40.60
18575;DHT22;9417;16.484;102.872;2023-03-01T07:09:20;32.10;41.40
18575;DHT22;9417;16.484;102.872;2023-03-01T07:11:28;32.10;41.50
18575;DHT22;9417;16.484;102.872;2023-03-01T07:13:35;32.10;40.70
18575;DHT22;9417;16.484;102.872;2023-03-01T07:15:42;32.10;41.00
18575;DHT22;9417;16.484;102.872;2023-03-01T07:17:49;32.10;41.60
18575;DHT22;9417;16.484;102.872;2023-03-01T07:19:57;32.20;41.80
18575;DHT22;9417;16.484;102.872;2023-03-01T07:22:04;32.20;41.80
18575;DHT22;9417;16.484;102.872;2023-03-01T07:24:12;32.20;41.60
18575;DHT22;9417;16.484;102.872;2023-03-01T07:26:19;32.30;41.00
18575;DHT22;9417;16.484;102.872;2023-03-01T07:28:30;32.40;40.00
18575;DHT22;9417;16.484;102.872;2023-03-01T07:30:40;32.40;39.70
18575;DHT22;9417;16.484;102.872;2023-03-01T07:32:47;32.40;39.60
18575;DHT22;9417;16.484;102.872;2023-03-01T07:34:56;32.40;39.70
18575;DHT22;9417;16.484;102.872;2023-03-01T07:37:03;32.40;40.50
18575;DHT22;9417;16.484;102.872;2023-03-01T07:39:10;32.30;40.80
18575;DHT22;9417;16.484;102.872;2023-03-01T07:41:18;32.30;41.40
18575;DHT22;9417;16.484;102.872;2023-03-01T07:43:25;32.20;38.20
18575;DHT22;9417;16.484;102.872;2023-03-01T07:45:34;32.10;39.60
18575;DHT22;9417;16.484;102.872;2023-03-01T07:47:41;32.10;40.80
18575;DHT22;9417;16.484;102.872;2023-03-01T07:49:48;32.10;39.70
18575;DHT22;9417;16.484;102.872;2023-03-01T07:51:56;32.10;39.70
18575;DHT22;9417;16.484;102.872;2023-03-01T07:54:03;32.10;39.50
18575;DHT22;9417;16.484;102.872;2023-03-01T07:56:11;32.20;39.80
18575;DHT22;9417;16.484;102.872;2023-03-01T07:58:18;32.30;39.80
18575;DHT22;9417;16.484;102.872;2023-03-01T08:00:25;32.40;39.50
18575;DHT22;9417;16.484;102.872;2023-03-01T08:02:34;32.50;39.50
18575;DHT22;9417;16.484;102.872;2023-03-01T08:04:41;32.60;38.70
18575;DHT22;9417;16.484;102.872;2023-03-01T08:06:47;32.60;38.40
18575;DHT22;9417;16.484;102.872;2023-03-01T08:08:55;32.60;37.20
18575;DHT22;9417;16.484;102.872;2023-03-01T08:11:03;32.60;37.70
18575;DHT22;9417;16.484;102.872;2023-03-01T08:13:11;32.50;37.40
18575;DHT22;9417;16.484;102.872;2023-03-01T08:15:18;32.60;37.70
18575;DHT22;9417;16.484;102.872;2023-03-01T08:17:25;32.60;37.80
18575;DHT22;9417;16.484;102.872;2023-03-01T08:19:33;32.60;37.70
18575;DHT22;9417;16.484;102.872;2023-03-01T08:21:41;32.50;37.40
18575;DHT22;9417;16.484;102.872;2023-03-01T08:23:47;32.50;38.10
18575;DHT22;9417;16.484;102.872;2023-03-01T08:25:55;32.50;38.50
18575;DHT22;9417;16.484;102.872;2023-03-01T08:28:02;32.50;38.70
18575;DHT22;9417;16.484;102.872;2023-03-01T08:30:10;32.60;38.60
18575;DHT22;9417;16.484;102.872;2023-03-01T08:32:17;32.70;39.00
18575;DHT22;9417;16.484;102.872;2023-03-01T08:34:24;32.70;39.10
18575;DHT22;9417;16.484;102.872;2023-03-01T08:36:35;32.70;39.00
18575;DHT22;9417;16.484;102.872;2023-03-01T08:38:43;32.70;38.50
18575;DHT22;9417;16.484;102.872;2023-03-01T08:40:50;32.70;38.50
18575;DHT22;9417;16.484;102.872;2023-03-01T08:42:58;32.70;38.40
18575;DHT22;9417;16.484;102.872;2023-03-01T08:45:06;32.70;38.70
18575;DHT22;9417;16.484;102.872;2023-03-01T08:47:13;32.70;38.80
18575;DHT22;9417;16.484;102.872;2023-03-01T08:49:21;32.80;39.00
18575;DHT22;9417;16.484;102.872;2023-03-01T08:51:28;32.70;38.90
18575;DHT22;9417;16.484;102.872;2023-03-01T08:53:38;32.70;39.00
18575;DHT22;9417;16.484;102.872;2023-03-01T08:55:46;32.70;39.10
18575;DHT22;9417;16.484;102.872;2023-03-01T08:57:53;32.70;39.10
18575;DHT22;9417;16.484;102.872;2023-03-01T09:00:00;32.70;39.30
18575;DHT22;9417;16.484;102.872;2023-03-01T09:02:13;32.70;39.60
18575;DHT22;9417;16.484;102.872;2023-03-01T09:04:20;32.70;39.40
18575;DHT22;9417;16.484;102.872;2023-03-01T09:06:27;32.70;39.50
18575;DHT22;9417;16.484;102.872;2023-03-01T09:08:40;32.70;39.60
18575;DHT22;9417;16.484;102.872;2023-03-01T09:10:47;32.60;39.50
18575;DHT22;9417;16.484;102.872;2023-03-01T09:12:54;32.60;39.60
18575;DHT22;9417;16.484;102.872;2023-03-01T09:15:01;32.60;39.60
18575;DHT22;9417;16.484;102.872;2023-03-01T09:17:08;32.60;39.70
18575;DHT22;9417;16.484;102.872;2023-03-01T09:19:15;32.60;39.60
18575;DHT22;9417;16.484;102.872;2023-03-01T09:21:24;32.50;39.50
18575;DHT22;9417;16.484;102.872;2023-03-01T09:23:46;32.50;39.50
18575;DHT22;9417;16.484;102.872;2023-03-01T09:25:53;32.50;39.60
18575;DHT22;9417;16.484;102.872;2023-03-01T09:28:00;32.40;39.80
18575;DHT22;9417;16.484;102.872;2023-03-01T09:30:09;32.40;39.90
18575;DHT22;9417;16.484;102.872;2023-03-01T09:32:16;32.30;40.10
18575;DHT22;9417;16.484;102.872;2023-03-01T09:34:23;32.30;40.00
18575;DHT22;9417;16.484;102.872;2023-03-01T09:36:30;32.30;40.20
18575;DHT22;9417;16.484;102.872;2023-03-01T09:38:38;32.30;40.30
18575;DHT22;9417;16.484;102.872;2023-03-01T09:40:46;32.20;40.40
18575;DHT22;9417;16.484;102.872;2023-03-01T09:42:58;32.20;40.60
18575;DHT22;9417;16.484;102.872;2023-03-01T09:45:11;32.20;40.60
18575;DHT22;9417;16.484;102.872;2023-03-01T09:47:25;32.10;40.60
18575;DHT22;9417;16.484;102.872;2023-03-01T09:49:34;32.00;40.70
18575;DHT22;9417;16.484;102.872;2023-03-01T09:51:54;32.00;40.80
18575;DHT22;9417;16.484;102.872;2023-03-01T09:54:02;32.00;40.90
18575;DHT22;9417;16.484;102.872;2023-03-01T09:56:17;31.90;41.10
18575;DHT22;9417;16.484;102.872;2023-03-01T09:58:42;31.90;40.90
18575;DHT22;9417;16.484;102.872;2023-03-01T10:00:53;31.80;40.80
18575;DHT22;9417;16.484;102.872;2023-03-01T10:03:07;31.70;41.00
18575;DHT22;9417;16.484;102.872;2023-03-01T10:05:35;31.70;41.10
18575;DHT22;9417;16.484;102.872;2023-03-01T10:07:47;31.60;41.00
18575;DHT22;9417;16.484;102.872;2023-03-01T10:10:06;31.60;41.40
18575;DHT22;9417;16.484;102.872;2023-03-01T10:12:17;31.50;41.60
18575;DHT22;9417;16.484;102.872;2023-03-01T10:14:30;31.50;41.70
18575;DHT22;9417;16.484;102.872;2023-03-01T10:16:43;31.50;42.00
18575;DHT22;9417;16.484;102.872;2023-03-01T10:18:55;31.40;42.10
18575;DHT22;9417;16.484;102.872;2023-03-01T10:21:08;31.40;42.20
18575;DHT22;9417;16.484;102.872;2023-03-01T10:23:17;31.30;41.80
18575;DHT22;9417;16.484;102.872;2023-03-01T10:25:44;31.20;42.40
18575;DHT22;9417;16.484;102.872;2023-03-01T10:27:55;31.20;42.20
18575;DHT22;9417;16.484;102.872;2023-03-01T10:30:09;31.10;42.40
18575;DHT22;9417;16.484;102.872;2023-03-01T10:32:20;31.10;42.40
18575;DHT22;9417;16.484;102.872;2023-03-01T10:34:29;31.00;42.50
18575;DHT22;9417;16.484;102.872;2023-03-01T10:36:39;31.00;42.80
18575;DHT22;9417;16.484;102.872;2023-03-01T10:38:52;30.90;43.10
18575;DHT22;9417;16.484;102.872;2023-03-01T10:41:04;30.90;43.50
18575;DHT22;9417;16.484;102.872;2023-03-01T10:43:13;30.80;43.90
18575;DHT22;9417;16.484;102.872;2023-03-01T10:45:32;30.70;44.30
18575;DHT22;9417;16.484;102.872;2023-03-01T10:47:39;30.70;44.60
18575;DHT22;9417;16.484;102.872;2023-03-01T10:50:00;30.60;44.90
18575;DHT22;9417;16.484;102.872;2023-03-01T10:52:18;30.50;45.20
18575;DHT22;9417;16.484;102.872;2023-03-01T10:54:28;30.50;45.90
18575;DHT22;9417;16.484;102.872;2023-03-01T10:56:48;30.30;46.10
18575;DHT22;9417;16.484;102.872;2023-03-01T10:59:01;30.30;46.70
18575;DHT22;9417;16.484;102.872;2023-03-01T11:01:25;30.20;47.10
18575;DHT22;9417;16.484;102.872;2023-03-01T11:03:34;30.20;47.70
18575;DHT22;9417;16.484;102.872;2023-03-01T11:05:54;30.00;47.80
18575;DHT22;9417;16.484;102.872;2023-03-01T11:08:02;30.00;48.60
18575;DHT22;9417;16.484;102.872;2023-03-01T11:10:15;29.90;48.50
18575;DHT22;9417;16.484;102.872;2023-03-01T11:12:23;29.80;49.00
18575;DHT22;9417;16.484;102.872;2023-03-01T11:14:35;29.60;49.50
18575;DHT22;9417;16.484;102.872;2023-03-01T11:16:45;29.50;49.90
18575;DHT22;9417;16.484;102.872;2023-03-01T11:18:58;29.40;50.10
18575;DHT22;9417;16.484;102.872;2023-03-01T11:21:06;29.30;50.50
18575;DHT22;9417;16.484;102.872;2023-03-01T11:23:16;29.30;51.10
18575;DHT22;9417;16.484;102.872;2023-03-01T11:25:26;29.20;51.60
18575;DHT22;9417;16.484;102.872;2023-03-01T11:27:36;29.20;51.90
18575;DHT22;9417;16.484;102.872;2023-03-01T11:29:50;29.10;52.00
18575;DHT22;9417;16.484;102.872;2023-03-01T11:32:01;29.00;52.30
18575;DHT22;9417;16.484;102.872;2023-03-01T11:34:13;28.90;52.90
18575;DHT22;9417;16.484;102.872;2023-03-01T11:36:26;28.90;52.90
18575;DHT22;9417;16.484;102.872;2023-03-01T11:38:36;28.80;53.30
18575;DHT22;9417;16.484;102.872;2023-03-01T11:40:47;28.70;53.70
18575;DHT22;9417;16.484;102.872;2023-03-01T11:43:09;28.60;53.80
18575;DHT22;9417;16.484;102.872;2023-03-01T11:45:23;28.60;54.10
18575;DHT22;9417;16.484;102.872;2023-03-01T11:50:20;28.40;54.90
18575;DHT22;9417;16.484;102.872;2023-03-01T11:52:40;28.40;55.30
18575;DHT22;9417;16.484;102.872;2023-03-01T11:55:12;28.20;55.30
18575;DHT22;9417;16.484;102.872;2023-03-01T11:57:37;28.20;55.60
18575;DHT22;9417;16.484;102.872;2023-03-01T12:00:03;28.10;56.30
18575;DHT22;9417;16.484;102.872;2023-03-01T12:02:32;28.00;56.40
18575;DHT22;9417;16.484;102.872;2023-03-01T12:05:01;27.90;56.70
18575;DHT22;9417;16.484;102.872;2023-03-01T12:07:16;27.80;57.20
18575;DHT22;9417;16.484;102.872;2023-03-01T12:09:50;27.80;56.90
18575;DHT22;9417;16.484;102.872;2023-03-01T12:12:27;27.70;56.80
18575;DHT22;9417;16.484;102.872;2023-03-01T12:14:50;27.70;57.30
18575;DHT22;9417;16.484;102.872;2023-03-01T12:17:07;27.70;57.50
18575;DHT22;9417;16.484;102.872;2023-03-01T12:19:30;27.70;57.60
18575;DHT22;9417;16.484;102.872;2023-03-01T12:21:51;27.60;57.90
18575;DHT22;9417;16.484;102.872;2023-03-01T12:26:33;27.50;57.80
18575;DHT22;9417;16.484;102.872;2023-03-01T12:28:59;27.40;58.00
18575;DHT22;9417;16.484;102.872;2023-03-01T12:31:56;27.40;58.90
18575;DHT22;9417;16.484;102.872;2023-03-01T12:34:20;27.30;60.30
18575;DHT22;9417;16.484;102.872;2023-03-01T12:36:49;27.20;59.70
18575;DHT22;9417;16.484;102.872;2023-03-01T12:39:06;27.10;60.50
18575;DHT22;9417;16.484;102.872;2023-03-01T12:43:58;26.90;60.50
18575;DHT22;9417;16.484;102.872;2023-03-01T12:46:19;26.80;60.80
18575;DHT22;9417;16.484;102.872;2023-03-01T12:48:42;26.70;61.30
18575;DHT22;9417;16.484;102.872;2023-03-01T12:50:55;26.60;60.70
18575;DHT22;9417;16.484;102.872;2023-03-01T12:53:04;26.50;60.70
18575;DHT22;9417;16.484;102.872;2023-03-01T12:55:22;26.40;60.50
18575;DHT22;9417;16.484;102.872;2023-03-01T12:57:33;26.30;61.70
18575;DHT22;9417;16.484;102.872;2023-03-01T12:59:51;26.30;62.20
18575;DHT22;9417;16.484;102.872;2023-03-01T13:02:13;26.20;62.80
18575;DHT22;9417;16.484;102.872;2023-03-01T13:04:45;26.10;63.10
18575;DHT22;9417;16.484;102.872;2023-03-01T13:07:13;26.10;64.30
18575;DHT22;9417;16.484;102.872;2023-03-01T13:09:29;26.00;63.60
18575;DHT22;9417;16.484;102.872;2023-03-01T13:11:40;26.00;64.00
18575;DHT22;9417;16.484;102.872;2023-03-01T13:13:48;25.90;64.00
18575;DHT22;9417;16.484;102.872;2023-03-01T13:15:56;25.90;63.90
18575;DHT22;9417;16.484;102.872;2023-03-01T13:18:26;25.80;64.20
18575;DHT22;9417;16.484;102.872;2023-03-01T13:20:45;25.80;63.90
18575;DHT22;9417;16.484;102.872;2023-03-01T13:23:04;25.80;64.20
18575;DHT22;9417;16.484;102.872;2023-03-01T13:25:17;25.80;64.80
18575;DHT22;9417;16.484;102.872;2023-03-01T13:27:28;25.70;64.50
18575;DHT22;9417;16.484;102.872;2023-03-01T13:29:45;25.70;64.30
18575;DHT22;9417;16.484;102.872;2023-03-01T13:32:00;25.70;65.00
18575;DHT22;9417;16.484;102.872;2023-03-01T13:37:16;25.60;66.40
18575;DHT22;9417;16.484;102.872;2023-03-01T13:39:31;25.50;66.60
18575;DHT22;9417;16.484;102.872;2023-03-01T13:41:51;25.40;68.30